createdAt,value
2023-03-17T00:01:44.978Z,98468.38
2023-03-17T00:04:13.500Z,98464.22
2023-03-17T00:06:42.659Z,98459.81
2023-03-17T00:09:14.613Z,98453.25
2023-03-17T00:11:42.940Z,98446.28
2023-03-17T00:14:11.276Z,98439.47
2023-03-17T00:16:43.730Z,98429.78
2023-03-17T00:19:16.624Z,98433.44
2023-03-17T00:21:45.171Z,98426.41
2023-03-17T00:24:15.355Z,98420.78
2023-03-17T00:26:43.670Z,98420.53
2023-03-17T00:29:11.974Z,98419.59
2023-03-17T00:31:41.334Z,98418.75
2023-03-17T00:34:13.092Z,98416.88
2023-03-17T00:36:49.685Z,98410.03
2023-03-17T00:39:18.498Z,98419.09
2023-03-17T00:41:50.329Z,98423.03
2023-03-17T00:44:18.518Z,98406.56
2023-03-17T00:46:50.765Z,98405.44
2023-03-17T00:49:21.230Z,98417.81
2023-03-17T00:51:50.611Z,98403.16
2023-03-17T00:54:20.547Z,98405.06
2023-03-17T00:56:49.234Z,98401.13
2023-03-17T00:59:22.618Z,98404.66
2023-03-17T01:01:52.085Z,98390.25
2023-03-17T01:04:22.792Z,98389.69
2023-03-17T01:06:52.134Z,98385.94
2023-03-17T01:09:21.139Z,98388.28
2023-03-17T01:11:49.367Z,98381.06
2023-03-17T01:14:17.795Z,98381.63
2023-03-17T01:16:45.849Z,98376.75
2023-03-17T01:19:16.996Z,98380.22
2023-03-17T01:21:45.624Z,98376.38
2023-03-17T01:24:14.429Z,98377.69
2023-03-17T01:26:42.284Z,98371.84
2023-03-17T01:29:10.250Z,98371.66
2023-03-17T01:31:39.205Z,98373.47
2023-03-17T01:34:07.170Z,98372.06
2023-03-17T01:36:37.497Z,98371.50
2023-03-17T01:39:07.334Z,98370.19
2023-03-17T01:41:40.010Z,98358.75
2023-03-17T01:44:08.571Z,98357.59
2023-03-17T01:46:37.562Z,98363.59
2023-03-17T01:49:14.689Z,98353.28
2023-03-17T01:51:52.649Z,98350.47
2023-03-17T01:54:25.584Z,98356.19
2023-03-17T01:57:01.091Z,98350.88
2023-03-17T01:59:35.914Z,98346.00
2023-03-17T02:02:09.117Z,98349.19
2023-03-17T02:04:38.638Z,98342.06
2023-03-17T02:07:08.670Z,98345.81
2023-03-17T02:09:38.700Z,98344.09
2023-03-17T02:12:09.218Z,98350.88
2023-03-17T02:14:39.382Z,98351.44
2023-03-17T02:17:07.848Z,98355.00
2023-03-17T02:19:35.864Z,98350.66
2023-03-17T02:22:05.609Z,98345.34
2023-03-17T02:24:38.617Z,98343.28
2023-03-17T02:27:11.936Z,98336.56
2023-03-17T02:29:40.405Z,98345.81
2023-03-17T02:32:10.916Z,98354.31
2023-03-17T02:34:38.681Z,98356.50
2023-03-17T02:37:08.799Z,98354.75
2023-03-17T02:39:37.973Z,98348.41
2023-03-17T02:42:07.060Z,98339.97
2023-03-17T02:44:35.438Z,98344.50
2023-03-17T02:47:04.330Z,98345.22
2023-03-17T02:49:33.844Z,98344.59
2023-03-17T02:52:02.675Z,98336.25
2023-03-17T02:54:32.324Z,98326.31
2023-03-17T02:57:01.029Z,98330.81
2023-03-17T02:59:29.134Z,98329.97
2023-03-17T03:01:57.448Z,98329.50
2023-03-17T03:04:26.301Z,98324.22
2023-03-17T03:06:55.186Z,98329.03
2023-03-17T03:09:24.164Z,98333.44
2023-03-17T03:11:53.367Z,98327.69
2023-03-17T03:14:21.289Z,98324.31
2023-03-17T03:16:49.789Z,98316.53
2023-03-17T03:19:17.664Z,98322.19
2023-03-17T03:21:46.165Z,98326.41
2023-03-17T03:24:14.154Z,98317.88
2023-03-17T03:26:42.479Z,98315.63
2023-03-17T03:29:11.649Z,98317.03
2023-03-17T03:31:39.547Z,98323.19
2023-03-17T03:34:07.543Z,98331.91
2023-03-17T03:36:35.453Z,98325.19
2023-03-17T03:39:03.277Z,98322.56
2023-03-17T03:41:31.203Z,98309.81
2023-03-17T03:43:59.046Z,98317.94
2023-03-17T03:46:29.079Z,98317.69
2023-03-17T03:48:56.950Z,98316.97
2023-03-17T03:51:24.982Z,98326.44
2023-03-17T03:53:52.883Z,98328.38
2023-03-17T03:56:20.779Z,98326.88
2023-03-17T03:58:48.548Z,98328.38
2023-03-17T04:01:16.527Z,98322.94
2023-03-17T04:03:47.209Z,98317.69
2023-03-17T04:06:16.221Z,98321.63
2023-03-17T04:08:44.436Z,98322.03
2023-03-17T04:11:12.397Z,98321.81
2023-03-17T04:13:40.212Z,98318.25
2023-03-17T04:16:08.814Z,98313.56
2023-03-17T04:18:36.964Z,98309.16
2023-03-17T04:21:07.115Z,98312.28
2023-03-17T04:23:35.509Z,98319.19
2023-03-17T04:26:04.079Z,98317.91
2023-03-17T04:28:32.456Z,98301.03
2023-03-17T04:31:00.575Z,98305.81
2023-03-17T04:33:28.777Z,98305.88
2023-03-17T04:35:56.960Z,98307.28
2023-03-17T04:38:26.144Z,98302.69
2023-03-17T04:40:54.411Z,98306.06
2023-03-17T04:43:22.205Z,98300.44
2023-03-17T04:45:50.060Z,98294.16
2023-03-17T04:48:17.944Z,98301.97
2023-03-17T04:50:47.764Z,98301.66
2023-03-17T04:53:15.607Z,98301.03
2023-03-17T04:55:45.185Z,98292.69
2023-03-17T04:58:21.117Z,98291.47
2023-03-17T05:00:56.108Z,98289.97
2023-03-17T05:03:28.153Z,98287.81
2023-03-17T05:05:56.477Z,98290.44
2023-03-17T05:08:24.399Z,98288.66
2023-03-17T05:10:53.659Z,98282.56
2023-03-17T05:13:22.095Z,98279.09
2023-03-17T05:15:51.593Z,98277.13
2023-03-17T05:18:20.926Z,98282.66
2023-03-17T05:20:48.789Z,98278.91
2023-03-17T05:23:17.004Z,98284.34
2023-03-17T05:25:45.742Z,98279.50
2023-03-17T05:28:15.012Z,98286.28
2023-03-17T05:30:44.030Z,98287.28
2023-03-17T05:33:11.904Z,98296.03
2023-03-17T05:35:40.782Z,98292.72
2023-03-17T05:38:08.730Z,98295.53
2023-03-17T05:40:36.998Z,98302.78
2023-03-17T05:43:06.101Z,98306.34
2023-03-17T05:45:35.527Z,98302.66
2023-03-17T05:48:04.301Z,98298.56
2023-03-17T05:50:32.801Z,98300.81
2023-03-17T05:53:00.942Z,98294.91
2023-03-17T05:55:28.963Z,98289.31
2023-03-17T05:57:56.939Z,98286.44
2023-03-17T06:00:29.299Z,98283.59
2023-03-17T06:02:59.048Z,98283.75
2023-03-17T06:05:27.234Z,98289.81
2023-03-17T06:07:56.569Z,98297.66
2023-03-17T06:10:25.014Z,98288.03
2023-03-17T06:12:52.918Z,98288.72
2023-03-17T06:15:21.340Z,98289.84
2023-03-17T06:17:49.324Z,98294.16
2023-03-17T06:20:19.225Z,98300.47
2023-03-17T06:23:02.692Z,98307.00
2023-03-17T06:25:32.032Z,98300.81
2023-03-17T06:28:02.433Z,98300.63
2023-03-17T06:30:32.722Z,98303.00
2023-03-17T06:33:01.152Z,98311.31
2023-03-17T06:35:30.947Z,98310.03
2023-03-17T06:37:59.098Z,98300.19
2023-03-17T06:40:26.938Z,98300.25
2023-03-17T06:42:54.886Z,98300.38
2023-03-17T06:45:23.080Z,98291.63
2023-03-17T06:47:51.174Z,98287.28
2023-03-17T06:50:19.516Z,98286.94
2023-03-17T06:52:48.720Z,98287.09
2023-03-17T06:55:17.535Z,98284.25
2023-03-17T06:57:45.872Z,98288.31
2023-03-17T07:00:15.837Z,98289.34
2023-03-17T07:02:44.206Z,98288.69
2023-03-17T07:05:13.876Z,98295.47
2023-03-17T07:07:42.453Z,98294.19
2023-03-17T07:10:13.743Z,98295.00
2023-03-17T07:12:41.571Z,98299.88
2023-03-17T07:15:11.040Z,98299.41
2023-03-17T07:17:42.210Z,98304.03
2023-03-17T07:20:11.660Z,98302.84
2023-03-17T07:22:39.605Z,98294.53
2023-03-17T07:25:09.694Z,98294.88
2023-03-17T07:27:38.972Z,98302.94
2023-03-17T07:30:08.289Z,98297.53
2023-03-17T07:32:36.260Z,98296.41
2023-03-17T07:35:04.961Z,98305.56
2023-03-17T07:37:32.943Z,98298.78
2023-03-17T07:40:01.209Z,98293.75
2023-03-17T07:42:30.147Z,98304.84
2023-03-17T07:44:59.665Z,98295.63
2023-03-17T07:47:27.531Z,98294.81
2023-03-17T07:49:55.449Z,98294.53
2023-03-17T07:52:23.335Z,98287.41
2023-03-17T07:54:52.112Z,98283.75
2023-03-17T07:57:20.079Z,98284.97
2023-03-17T07:59:47.940Z,98281.09
2023-03-17T08:02:19.631Z,98281.09
2023-03-17T08:04:48.002Z,98270.88
2023-03-17T08:07:18.624Z,98278.53
2023-03-17T08:09:48.209Z,98276.78
2023-03-17T08:12:20.035Z,98272.44
2023-03-17T08:14:48.565Z,98283.31
2023-03-17T08:17:18.079Z,98280.38
2023-03-17T08:19:46.777Z,98277.09
2023-03-17T08:22:15.205Z,98275.91
2023-03-17T08:24:43.242Z,98268.78
2023-03-17T08:27:11.211Z,98263.63
2023-03-17T08:29:39.163Z,98263.84
2023-03-17T08:32:08.014Z,98264.81
2023-03-17T08:34:37.646Z,98269.09
2023-03-17T08:37:07.004Z,98264.69
2023-03-17T08:39:36.301Z,98257.97
2023-03-17T08:42:06.182Z,98256.44
2023-03-17T08:44:34.395Z,98254.97
2023-03-17T08:47:02.325Z,98248.38
2023-03-17T08:49:31.113Z,98247.50
2023-03-17T08:52:00.984Z,98249.81
2023-03-17T08:54:29.186Z,98244.34
2023-03-17T08:56:57.132Z,98243.00
2023-03-17T08:59:27.687Z,98240.22
2023-03-17T09:01:55.738Z,98231.84
2023-03-17T09:04:24.028Z,98238.19
2023-03-17T09:07:02.735Z,98235.13
2023-03-17T09:09:34.544Z,98236.44
2023-03-17T09:12:04.468Z,98231.06
2023-03-17T09:14:42.884Z,98220.53
2023-03-17T09:17:12.168Z,98220.59
2023-03-17T09:19:40.537Z,98226.03
2023-03-17T09:22:08.727Z,98223.34
2023-03-17T09:24:38.210Z,98223.69
2023-03-17T09:27:06.445Z,98219.56
2023-03-17T09:29:35.054Z,98220.19
2023-03-17T09:32:03.706Z,98213.97
2023-03-17T09:34:32.898Z,98217.97
2023-03-17T09:37:01.003Z,98227.38
2023-03-17T09:39:29.019Z,98227.88
2023-03-17T09:42:19.904Z,98231.97
2023-03-17T09:45:00.114Z,98220.44
2023-03-17T09:47:49.877Z,98219.22
2023-03-17T09:50:26.869Z,98225.72
2023-03-17T09:52:58.661Z,98225.69
2023-03-17T09:55:30.788Z,98216.66
2023-03-17T09:58:03.496Z,98222.00
2023-03-17T10:00:32.743Z,98222.97
2023-03-17T10:03:02.402Z,98225.56
2023-03-17T10:05:32.659Z,98222.25
2023-03-17T10:08:28.942Z,98220.97
2023-03-17T10:11:03.424Z,98209.63
2023-03-17T10:13:46.495Z,98207.69
2023-03-17T10:16:17.745Z,98210.56
2023-03-17T10:18:54.301Z,98208.69
2023-03-17T10:21:26.799Z,98194.25
2023-03-17T10:23:56.353Z,98187.16
2023-03-17T10:26:31.678Z,98179.81
2023-03-17T10:29:04.163Z,98188.59
2023-03-17T10:31:35.886Z,98186.22
2023-03-17T10:34:15.680Z,98178.13
2023-03-17T10:36:47.343Z,98181.72
2023-03-17T10:39:19.662Z,98182.22
2023-03-17T10:41:57.406Z,98180.13
2023-03-17T10:44:44.252Z,98165.31
2023-03-17T10:47:30.396Z,98165.53
2023-03-17T10:49:59.815Z,98165.41
2023-03-17T10:52:30.141Z,98181.03
2023-03-17T10:55:03.771Z,98171.44
2023-03-17T10:57:32.881Z,98170.16
2023-03-17T11:00:05.111Z,98172.75
2023-03-17T11:02:44.282Z,98159.03
2023-03-17T11:05:20.587Z,98158.72
2023-03-17T11:07:48.851Z,98150.38
2023-03-17T11:10:21.008Z,98154.19
2023-03-17T11:12:51.343Z,98151.50
2023-03-17T11:15:21.132Z,98142.41
2023-03-17T11:17:56.873Z,98149.09
2023-03-17T11:20:45.762Z,98130.78
2023-03-17T11:23:24.186Z,98136.66
2023-03-17T11:26:03.065Z,98127.81
2023-03-17T11:28:37.029Z,98128.03
2023-03-17T11:31:13.132Z,98124.25
2023-03-17T11:33:49.695Z,98129.00
2023-03-17T11:36:31.622Z,98109.03
2023-03-17T11:39:05.707Z,98106.19
2023-03-17T11:41:46.067Z,98103.69
2023-03-17T11:44:46.540Z,98104.00
2023-03-17T11:47:28.929Z,98101.88
2023-03-17T11:50:04.832Z,98098.59
2023-03-17T11:52:44.518Z,98096.50
2023-03-17T11:55:21.674Z,98097.44
2023-03-17T11:57:55.182Z,98090.94
2023-03-17T12:00:29.406Z,98092.91
2023-03-17T12:03:03.364Z,98087.75
2023-03-17T12:05:31.995Z,98088.81
2023-03-17T12:08:04.230Z,98086.50
2023-03-17T12:10:39.800Z,98076.16
2023-03-17T12:13:16.636Z,98077.28
2023-03-17T12:15:50.822Z,98085.88
2023-03-17T12:18:25.292Z,98087.28
2023-03-17T12:21:08.751Z,98080.31
2023-03-17T12:23:48.150Z,98075.59
2023-03-17T12:26:21.199Z,98070.34
2023-03-17T12:28:55.627Z,98069.13
2023-03-17T12:31:28.168Z,98070.91
2023-03-17T12:34:06.466Z,98069.22
2023-03-17T12:36:38.089Z,98065.97
2023-03-17T12:39:12.686Z,98061.84
2023-03-17T12:42:00.160Z,98063.50
2023-03-17T12:44:45.888Z,98062.09
2023-03-17T12:47:38.026Z,98060.03
2023-03-17T12:50:28.596Z,98062.41
2023-03-17T12:53:33.664Z,98052.84
2023-03-17T12:56:11.985Z,98054.63
2023-03-17T12:58:47.021Z,98053.13
2023-03-17T13:01:24.261Z,98048.53
2023-03-17T13:04:03.553Z,98038.53
2023-03-17T13:06:42.027Z,98046.38
2023-03-17T13:09:35.398Z,98030.75
2023-03-17T13:12:05.000Z,98031.72
2023-03-17T13:14:43.955Z,98024.97
2023-03-17T13:17:33.760Z,98025.06
2023-03-17T13:20:16.119Z,98027.38
2023-03-17T13:23:03.971Z,98016.22
2023-03-17T13:25:35.499Z,98015.31
2023-03-17T13:28:27.100Z,98017.38
2023-03-17T13:31:18.184Z,98013.56
2023-03-17T13:33:50.689Z,98005.50
2023-03-17T13:36:35.254Z,98005.41
2023-03-17T13:39:33.452Z,97994.78
2023-03-17T13:42:18.571Z,97996.38
2023-03-17T13:45:07.338Z,97983.81
2023-03-17T13:47:40.100Z,97982.78
2023-03-17T13:50:14.371Z,97982.88
2023-03-17T13:52:47.785Z,97987.69
2023-03-17T13:55:43.018Z,97987.69
2023-03-17T13:58:26.082Z,97981.69
2023-03-17T14:01:05.263Z,97980.13
2023-03-17T14:03:48.643Z,97972.56
2023-03-17T14:06:21.445Z,97969.13
2023-03-17T14:09:03.655Z,97969.13
2023-03-17T14:11:56.914Z,97969.16
2023-03-17T14:14:54.474Z,97959.19
2023-03-17T14:17:46.843Z,97954.53
2023-03-17T14:20:40.261Z,97960.41
2023-03-17T14:23:27.499Z,97951.03
2023-03-17T14:26:14.303Z,97953.00
2023-03-17T14:29:01.545Z,97948.63
2023-03-17T14:31:56.928Z,97949.69
2023-03-17T14:34:44.035Z,97950.97
2023-03-17T14:37:38.492Z,97936.59
2023-03-17T14:40:49.710Z,97941.13
2023-03-17T14:43:47.434Z,97944.97
2023-03-17T14:46:47.194Z,97942.28
2023-03-17T14:49:41.787Z,97936.16
2023-03-17T14:52:47.836Z,97931.03
2023-03-17T14:55:45.221Z,97930.56
2023-03-17T14:58:41.149Z,97936.50
2023-03-17T15:01:36.524Z,97932.13
2023-03-17T15:04:24.487Z,97940.88
2023-03-17T15:07:10.210Z,97934.63
2023-03-17T15:09:54.965Z,97933.47
2023-03-17T15:12:37.118Z,97930.47
2023-03-17T15:15:35.197Z,97929.09
2023-03-17T15:18:25.531Z,97921.84
2023-03-17T15:21:11.969Z,97921.72
2023-03-17T15:23:54.750Z,97922.31
2023-03-17T15:26:42.479Z,97933.72
2023-03-17T15:29:27.604Z,97926.09
2023-03-17T15:32:17.080Z,97918.13
2023-03-17T15:35:00.111Z,97914.53
2023-03-17T15:37:52.847Z,97921.47
2023-03-17T15:40:33.635Z,97927.72
2023-03-17T15:43:23.275Z,97926.56
2023-03-17T15:46:17.978Z,97920.38
2023-03-17T15:48:56.214Z,97919.16
2023-03-17T15:51:47.391Z,97924.31
2023-03-17T15:54:32.742Z,97918.31
2023-03-17T15:57:22.418Z,97915.19
2023-03-17T16:00:04.831Z,97914.91
2023-03-17T16:02:53.123Z,97910.78
2023-03-17T16:05:35.558Z,97911.84
2023-03-17T16:08:16.580Z,97910.66
2023-03-17T16:11:32.597Z,97915.28
2023-03-17T16:14:51.736Z,97908.53
2023-03-17T16:17:37.825Z,97911.19
2023-03-17T16:22:15.911Z,97908.50
2023-03-17T16:34:54.740Z,97908.38
2023-03-17T16:37:48.660Z,97914.97
2023-03-17T16:55:50.626Z,97925.44
2023-03-17T16:59:38.153Z,97930.91
2023-03-17T17:08:26.633Z,97942.53
2023-03-17T17:11:47.249Z,97943.69
2023-03-17T17:14:43.460Z,97944.38
2023-03-17T17:21:17.891Z,97945.25
2023-03-17T17:23:46.344Z,97977.63
2023-03-17T17:26:18.730Z,97978.69
2023-03-17T17:28:47.245Z,97989.88
2023-03-17T17:31:16.032Z,97974.56
2023-03-17T17:33:45.303Z,97982.75
2023-03-17T17:36:16.479Z,97984.75
2023-03-17T17:38:47.858Z,97983.41
2023-03-17T17:41:17.270Z,97989.78
2023-03-17T17:43:47.271Z,97997.78
2023-03-17T17:46:19.507Z,98006.44
2023-03-17T17:48:51.068Z,98005.78
2023-03-17T17:51:23.299Z,98004.41
2023-03-17T17:53:51.742Z,98004.69
2023-03-17T17:56:20.349Z,97999.69
2023-03-17T17:58:50.196Z,98009.53
2023-03-17T18:01:44.546Z,98003.31
2023-03-17T18:04:17.063Z,98015.28
2023-03-17T18:06:45.998Z,98019.81
2023-03-17T18:09:15.145Z,98017.31
2023-03-17T18:11:43.171Z,98025.59
2023-03-17T18:14:14.128Z,98023.88
2023-03-17T18:17:11.056Z,98030.03
2023-03-17T18:29:10.594Z,98028.13
2023-03-17T18:32:15.884Z,98042.69
2023-03-17T18:53:26.961Z,98055.13
2023-03-17T18:55:55.849Z,98056.31
2023-03-17T18:58:35.277Z,98059.00
2023-03-17T19:01:06.325Z,98059.13
2023-03-17T19:03:35.119Z,98069.03
2023-03-17T19:06:09.959Z,98065.06
2023-03-17T19:08:39.543Z,98069.63
2023-03-17T19:11:09.057Z,98078.94
2023-03-17T19:13:37.869Z,98069.91
2023-03-17T19:16:07.554Z,98075.31
2023-03-17T19:18:36.632Z,98069.53
2023-03-17T19:21:05.112Z,98074.31
2023-03-17T19:23:33.791Z,98074.25
2023-03-17T19:26:04.678Z,98064.75
2023-03-17T19:28:32.671Z,98065.91
2023-03-17T19:31:01.127Z,98065.47
2023-03-17T19:33:29.762Z,98083.84
2023-03-17T19:35:59.983Z,98083.75
2023-03-17T19:38:28.485Z,98072.06
2023-03-17T19:40:56.483Z,98086.06
2023-03-17T19:43:39.531Z,98078.75
2023-03-17T19:46:10.509Z,98089.13
2023-03-17T19:48:38.676Z,98094.34
2023-03-17T19:51:07.988Z,98089.63
2023-03-17T19:53:37.421Z,98089.22
2023-03-17T19:56:06.443Z,98089.28
2023-03-17T19:58:36.008Z,98096.28
2023-03-17T20:01:04.129Z,98098.97
2023-03-17T20:03:33.567Z,98099.31
2023-03-17T20:06:06.025Z,98092.66
2023-03-17T20:08:34.358Z,98100.63
2023-03-17T20:11:02.436Z,98089.13
2023-03-17T20:13:30.534Z,98096.44
2023-03-17T20:16:02.783Z,98097.00
2023-03-17T20:18:31.012Z,98108.72
2023-03-17T20:21:00.613Z,98110.31
2023-03-17T20:23:28.633Z,98101.56
2023-03-17T20:25:57.038Z,98109.13
2023-03-17T20:28:25.337Z,98114.44
2023-03-17T20:30:53.914Z,98122.13
2023-03-17T20:33:23.561Z,98115.81
2023-03-17T20:35:51.663Z,98121.69
2023-03-17T20:38:19.762Z,98115.41
2023-03-17T20:40:48.277Z,98117.38
2023-03-17T20:43:17.036Z,98117.22
2023-03-17T20:45:45.711Z,98127.16
2023-03-17T20:48:14.453Z,98126.59
2023-03-17T20:50:49.857Z,98123.09
2023-03-17T20:53:17.809Z,98117.78
2023-03-17T20:55:47.185Z,98118.44
2023-03-17T20:58:15.035Z,98120.84
2023-03-17T21:00:42.903Z,98125.31
2023-03-17T21:03:10.813Z,98128.66
2023-03-17T21:05:39.465Z,98130.06
2023-03-17T21:08:08.770Z,98129.78
2023-03-17T21:10:36.945Z,98132.44
2023-03-17T21:13:05.099Z,98125.31
2023-03-17T21:15:33.060Z,98122.09
2023-03-17T21:18:01.121Z,98127.81
2023-03-17T21:20:29.516Z,98129.47
2023-03-17T21:22:57.805Z,98123.63
2023-03-17T21:25:28.135Z,98123.22
2023-03-17T21:27:56.479Z,98126.56
2023-03-17T21:30:24.351Z,98126.69
2023-03-17T21:32:53.669Z,98129.91
2023-03-17T21:35:21.766Z,98127.81
2023-03-17T21:37:50.489Z,98121.19
2023-03-17T21:40:19.002Z,98123.38
2023-03-17T21:42:49.315Z,98111.66
2023-03-17T21:45:17.974Z,98124.38
2023-03-17T21:47:45.897Z,98123.41
2023-03-17T21:50:17.103Z,98124.34
2023-03-17T21:52:45.792Z,98134.25
2023-03-17T21:55:14.459Z,98141.06
2023-03-17T21:57:42.987Z,98127.06
2023-03-17T22:00:13.934Z,98134.72
2023-03-17T22:02:42.846Z,98141.97
2023-03-17T22:05:11.434Z,98147.69
2023-03-17T22:07:41.334Z,98148.28
2023-03-17T22:10:10.230Z,98147.28
2023-03-17T22:12:38.930Z,98158.00
2023-03-17T22:15:08.847Z,98153.50
2023-03-17T22:17:38.157Z,98163.91
2023-03-17T22:20:09.114Z,98157.28
2023-03-17T22:22:37.145Z,98157.81
2023-03-17T22:25:06.248Z,98156.97
2023-03-17T22:27:34.614Z,98161.09
2023-03-17T22:30:02.671Z,98163.91
2023-03-17T22:32:30.869Z,98173.69
2023-03-17T22:35:00.286Z,98173.13
2023-03-17T22:37:28.244Z,98175.97
2023-03-17T22:39:56.063Z,98186.66
2023-03-17T22:42:23.844Z,98188.25
2023-03-17T22:44:51.782Z,98183.03
2023-03-17T22:47:19.722Z,98189.19
2023-03-17T22:49:47.582Z,98194.41
2023-03-17T22:52:16.828Z,98190.72
2023-03-17T22:54:44.752Z,98196.47
2023-03-17T22:57:12.690Z,98186.38
2023-03-17T22:59:40.529Z,98184.03
2023-03-17T23:02:09.045Z,98191.94
2023-03-17T23:04:37.025Z,98188.19
2023-03-17T23:07:05.326Z,98186.72
2023-03-17T23:09:34.855Z,98194.00
2023-03-17T23:12:02.824Z,98194.66
2023-03-17T23:14:30.832Z,98193.59
2023-03-17T23:16:58.764Z,98197.03
2023-03-17T23:19:27.380Z,98201.63
2023-03-17T23:21:55.307Z,98204.72
2023-03-17T23:24:23.218Z,98198.47
2023-03-17T23:26:53.477Z,98212.34
2023-03-17T23:29:21.394Z,98218.53
2023-03-17T23:31:51.417Z,98210.66
2023-03-17T23:34:19.635Z,98211.34
2023-03-17T23:36:47.606Z,98213.56
2023-03-17T23:39:15.634Z,98216.31
2023-03-17T23:41:44.903Z,98209.69
2023-03-17T23:44:14.851Z,98213.66
2023-03-17T23:46:44.930Z,98219.19
2023-03-17T23:49:13.264Z,98218.03
2023-03-17T23:51:41.710Z,98218.75
2023-03-17T23:54:10.218Z,98221.84
2023-03-17T23:56:40.908Z,98224.63
2023-03-17T23:59:10.696Z,98227.47
